createdAt,value
2018-08-13T00:00:29.090Z,3.07
2018-08-13T00:03:03.989Z,3.37
2018-08-13T00:05:40.475Z,3.57
2018-08-13T00:08:16.925Z,3.90
2018-08-13T00:10:53.498Z,3.40
2018-08-13T00:13:28.739Z,3.30
2018-08-13T00:16:05.094Z,3.53
2018-08-13T00:18:40.333Z,3.80
2018-08-13T00:21:15.485Z,3.70
2018-08-13T00:23:53.581Z,3.50
2018-08-13T00:26:29.645Z,3.50
2018-08-13T00:29:07.142Z,3.30
2018-08-13T00:31:42.566Z,3.50
2018-08-13T00:34:19.139Z,3.30
2018-08-13T00:36:55.396Z,3.60
2018-08-13T00:39:30.850Z,3.40
2018-08-13T00:42:07.517Z,3.83
2018-08-13T00:44:43.365Z,3.50
2018-08-13T00:47:20.547Z,3.60
2018-08-13T00:49:56.408Z,3.50
2018-08-13T00:52:31.538Z,4.00
2018-08-13T00:55:10.772Z,3.50
2018-08-13T00:57:46.125Z,3.70
2018-08-13T01:00:22.987Z,3.50
2018-08-13T01:02:59.248Z,3.57
2018-08-13T01:05:35.936Z,3.80
2018-08-13T01:08:11.882Z,3.60
2018-08-13T01:10:47.383Z,3.47
2018-08-13T01:13:23.576Z,3.53
2018-08-13T01:15:58.720Z,3.67
2018-08-13T01:18:36.407Z,3.80
2018-08-13T01:21:11.966Z,3.47
2018-08-13T01:23:48.185Z,3.47
2018-08-13T01:26:24.278Z,3.87
2018-08-13T01:29:00.446Z,3.70
2018-08-13T01:31:37.025Z,3.40
2018-08-13T01:34:13.582Z,3.37
2018-08-13T01:36:51.285Z,3.60
2018-08-13T01:39:27.232Z,3.70
2018-08-13T01:42:02.631Z,3.50
2018-08-13T01:44:37.608Z,3.47
2018-08-13T01:47:12.934Z,3.70
2018-08-13T01:49:47.754Z,3.63
2018-08-13T01:52:23.074Z,3.60
2018-08-13T01:54:58.674Z,3.27
2018-08-13T01:57:33.169Z,3.30
2018-08-13T02:00:12.858Z,3.33
2018-08-13T02:02:47.929Z,3.70
2018-08-13T02:05:22.698Z,3.67
2018-08-13T02:07:57.526Z,3.50
2018-08-13T02:10:32.466Z,3.90
2018-08-13T02:13:07.572Z,3.40
2018-08-13T02:15:42.976Z,3.60
2018-08-13T02:18:17.825Z,3.50
2018-08-13T02:20:54.108Z,3.50
2018-08-13T02:23:29.457Z,3.80
2018-08-13T02:26:04.150Z,3.70
2018-08-13T02:28:39.231Z,3.33
2018-08-13T02:31:14.054Z,3.13
2018-08-13T02:33:48.764Z,3.90
2018-08-13T02:36:23.543Z,3.40
2018-08-13T02:38:58.694Z,3.50
2018-08-13T02:41:34.223Z,3.63
2018-08-13T02:46:51.418Z,4.10
2018-08-13T02:49:27.302Z,3.50
2018-08-13T02:52:05.252Z,3.47
2018-08-13T02:54:42.580Z,4.00
2018-08-13T02:57:20.039Z,3.80
2018-08-13T02:59:55.898Z,3.83
2018-08-13T03:02:31.843Z,3.60
2018-08-13T03:05:10.069Z,3.67
2018-08-13T03:07:45.697Z,3.90
2018-08-13T03:10:22.164Z,3.57
2018-08-13T03:12:58.038Z,3.80
2018-08-13T03:15:35.015Z,3.40
2018-08-13T03:18:11.060Z,3.77
2018-08-13T03:20:45.293Z,3.30
2018-08-13T03:23:20.110Z,3.90
2018-08-13T03:25:55.539Z,3.73
2018-08-13T03:28:30.889Z,3.53
2018-08-13T03:31:07.763Z,3.97
2018-08-13T03:33:42.898Z,4.00
2018-08-13T03:36:20.396Z,3.63
2018-08-13T03:38:55.827Z,3.80
2018-08-13T03:41:31.372Z,3.50
2018-08-13T03:44:09.171Z,3.80
2018-08-13T03:46:44.110Z,3.90
2018-08-13T03:49:20.054Z,3.50
2018-08-13T03:51:56.117Z,3.60
2018-08-13T03:54:31.454Z,3.70
2018-08-13T03:57:08.653Z,3.70
2018-08-13T03:59:45.314Z,3.70
2018-08-13T04:02:22.190Z,3.73
2018-08-13T04:04:57.948Z,3.97
2018-08-13T04:07:34.826Z,3.77
2018-08-13T04:10:12.919Z,4.10
2018-08-13T04:12:53.323Z,4.17
2018-08-13T04:15:29.131Z,4.03
2018-08-13T04:18:05.692Z,3.97
2018-08-13T04:20:41.051Z,3.53
2018-08-13T04:23:15.957Z,3.80
2018-08-13T04:25:54.094Z,3.80
2018-08-13T04:28:29.206Z,3.90
2018-08-13T04:31:06.291Z,3.77
2018-08-13T04:33:41.326Z,3.77
2018-08-13T04:36:17.256Z,3.80
2018-08-13T04:38:53.035Z,4.07
2018-08-13T04:41:29.908Z,4.03
2018-08-13T04:44:06.905Z,3.90
2018-08-13T04:46:42.746Z,3.93
2018-08-13T04:49:19.120Z,4.00
2018-08-13T04:51:55.061Z,3.60
2018-08-13T04:54:30.094Z,4.23
2018-08-13T04:57:06.962Z,4.20
2018-08-13T04:59:42.097Z,4.00
2018-08-13T05:02:17.359Z,4.40
2018-08-13T05:04:52.836Z,4.03
2018-08-13T05:07:28.343Z,4.27
2018-08-13T05:10:05.881Z,4.23
2018-08-13T05:12:42.494Z,4.03
2018-08-13T05:15:17.685Z,3.97
2018-08-13T05:17:52.001Z,3.87
2018-08-13T05:20:26.506Z,3.70
2018-08-13T05:23:01.730Z,3.67
2018-08-13T05:25:36.817Z,3.87
2018-08-13T05:28:17.718Z,3.70
2018-08-13T05:30:53.874Z,4.40
2018-08-13T05:33:29.626Z,4.17
2018-08-13T05:36:06.905Z,4.33
2018-08-13T05:38:43.270Z,4.83
2018-08-13T05:41:20.573Z,4.17
2018-08-13T05:43:56.297Z,4.47
2018-08-13T05:46:32.070Z,4.70
2018-08-13T05:49:10.380Z,4.50
2018-08-13T05:51:45.512Z,3.83
2018-08-13T05:54:24.945Z,4.60
2018-08-13T05:57:00.277Z,4.20
2018-08-13T05:59:36.962Z,4.30
2018-08-13T06:02:13.317Z,4.10
2018-08-13T06:04:49.595Z,4.07
2018-08-13T06:07:25.546Z,3.70
2018-08-13T06:10:00.771Z,4.10
2018-08-13T06:12:40.016Z,3.97
2018-08-13T06:15:15.346Z,3.70
2018-08-13T06:17:52.948Z,3.70
2018-08-13T06:20:28.489Z,3.90
2018-08-13T06:23:04.859Z,3.70
2018-08-13T06:25:40.422Z,3.60
2018-08-13T06:28:15.464Z,3.60
2018-08-13T06:30:52.407Z,4.10
2018-08-13T06:33:28.346Z,3.30
2018-08-13T06:36:03.497Z,3.33
2018-08-13T06:38:40.581Z,3.40
2018-08-13T06:41:15.815Z,3.73
2018-08-13T06:43:52.073Z,3.70
2018-08-13T06:46:28.139Z,3.60
2018-08-13T06:49:04.211Z,3.47
2018-08-13T06:51:40.553Z,3.67
2018-08-13T06:54:15.689Z,3.40
2018-08-13T06:56:52.773Z,3.70
2018-08-13T06:59:28.211Z,3.60
2018-08-13T07:02:04.246Z,3.43
2018-08-13T07:04:38.988Z,3.20
2018-08-13T07:07:15.177Z,4.40
2018-08-13T07:09:49.675Z,3.83
2018-08-13T07:12:25.245Z,4.00
2018-08-13T07:15:01.082Z,3.00
2018-08-13T07:17:37.287Z,3.30
2018-08-13T07:20:20.496Z,3.83
2018-08-13T07:22:59.701Z,3.47
2018-08-13T07:25:38.412Z,3.47
2018-08-13T07:28:12.846Z,3.53
2018-08-13T07:30:52.525Z,3.10
2018-08-13T07:33:31.927Z,3.13
2018-08-13T07:36:09.808Z,3.10
2018-08-13T07:38:45.254Z,2.90
2018-08-13T07:41:22.233Z,3.10
2018-08-13T07:43:57.880Z,2.63
2018-08-13T07:46:36.305Z,3.00
2018-08-13T07:49:12.046Z,3.03
2018-08-13T07:51:48.808Z,2.93
2018-08-13T07:54:24.390Z,3.03
2018-08-13T07:56:59.513Z,3.40
2018-08-13T07:59:34.949Z,4.33
2018-08-13T08:02:11.687Z,3.40
2018-08-13T08:04:47.265Z,4.07
2018-08-13T08:07:23.740Z,4.07
2018-08-13T08:09:59.070Z,5.17
2018-08-13T08:12:36.255Z,5.23
2018-08-13T08:15:16.412Z,5.37
2018-08-13T08:17:52.567Z,4.97
2018-08-13T08:20:28.209Z,4.40
2018-08-13T08:23:03.474Z,3.17
2018-08-13T08:25:39.921Z,3.20
2018-08-13T08:28:15.256Z,3.40
2018-08-13T08:30:51.732Z,3.50
2018-08-13T08:33:27.533Z,3.43
2018-08-13T08:36:03.239Z,3.60
2018-08-13T08:38:41.237Z,3.33
2018-08-13T08:41:16.367Z,3.47
2018-08-13T08:43:52.144Z,3.30
2018-08-13T08:46:28.282Z,3.87
2018-08-13T08:49:05.870Z,3.00
2018-08-13T08:51:41.825Z,3.00
2018-08-13T08:54:16.512Z,2.80
2018-08-13T08:56:51.070Z,3.20
2018-08-13T08:59:25.723Z,3.10
2018-08-13T09:02:00.405Z,3.00
2018-08-13T09:04:36.469Z,2.90
2018-08-13T09:07:11.215Z,3.00
2018-08-13T09:09:48.124Z,3.20
2018-08-13T09:12:23.421Z,3.00
2018-08-13T09:14:59.389Z,3.03
2018-08-13T09:17:46.148Z,2.80
2018-08-13T09:20:33.083Z,2.83
2018-08-13T09:23:19.992Z,3.00
2018-08-13T09:26:07.021Z,2.73
2018-08-13T09:28:54.755Z,2.57
2018-08-13T09:31:41.760Z,3.00
2018-08-13T09:34:27.626Z,2.57
2018-08-13T09:37:03.199Z,2.87
2018-08-13T09:39:46.455Z,2.87
2018-08-13T09:42:30.970Z,3.10
2018-08-13T09:45:10.580Z,3.13
2018-08-13T09:47:45.415Z,2.70
2018-08-13T09:50:20.402Z,2.57
2018-08-13T09:52:55.158Z,2.10
2018-08-13T09:55:30.226Z,2.40
2018-08-13T09:58:05.242Z,2.50
2018-08-13T10:00:45.537Z,2.30
2018-08-13T10:03:20.765Z,1.97
2018-08-13T10:05:56.338Z,2.00
2018-08-13T10:08:32.798Z,2.17
2018-08-13T10:11:08.348Z,2.00
2018-08-13T10:13:45.006Z,2.10
2018-08-13T10:16:20.451Z,2.10
2018-08-13T10:18:55.765Z,2.23
2018-08-13T10:21:30.820Z,2.30
2018-08-13T10:24:06.077Z,2.03
2018-08-13T10:26:41.044Z,2.50
2018-08-13T10:29:16.731Z,2.33
2018-08-13T10:31:53.639Z,2.50
2018-08-13T10:34:29.076Z,2.40
2018-08-13T10:37:05.649Z,2.93
2018-08-13T10:39:41.802Z,2.70
2018-08-13T10:42:16.937Z,2.73
2018-08-13T10:44:54.395Z,2.70
2018-08-13T10:47:30.877Z,2.80
2018-08-13T10:50:09.098Z,2.70
2018-08-13T10:52:45.059Z,2.77
2018-08-13T10:55:20.845Z,2.90
2018-08-13T10:57:57.872Z,3.00
2018-08-13T11:00:34.543Z,3.10
2018-08-13T11:03:10.610Z,3.10
2018-08-13T11:05:45.804Z,3.00
2018-08-13T11:08:25.802Z,3.23
2018-08-13T11:11:01.469Z,3.27
2018-08-13T11:13:38.925Z,3.37
2018-08-13T11:16:14.790Z,3.40
2018-08-13T11:18:51.592Z,3.20
2018-08-13T11:21:27.113Z,3.40
2018-08-13T11:24:01.645Z,3.47
2018-08-13T11:26:36.364Z,3.33
2018-08-13T11:29:10.970Z,3.20
2018-08-13T11:31:49.390Z,3.83
2018-08-13T11:34:24.435Z,3.60
2018-08-13T11:37:02.311Z,3.80
2018-08-13T11:39:37.016Z,3.70
2018-08-13T11:42:11.670Z,3.70
2018-08-13T11:44:48.494Z,3.23
2018-08-13T11:47:24.298Z,3.90
2018-08-13T11:50:00.046Z,3.57
2018-08-13T11:52:37.222Z,3.90
2018-08-13T11:55:17.685Z,4.10
2018-08-13T11:57:56.859Z,3.83
2018-08-13T12:00:36.975Z,3.63
2018-08-13T12:03:16.533Z,4.20
2018-08-13T12:06:02.308Z,4.30
2018-08-13T12:08:38.144Z,4.20
2018-08-13T12:11:14.321Z,4.20
2018-08-13T12:13:50.685Z,4.37
2018-08-13T12:16:28.479Z,4.40
2018-08-13T12:19:05.153Z,4.00
2018-08-13T12:21:41.505Z,4.00
2018-08-13T12:24:16.750Z,4.40
2018-08-13T12:26:54.862Z,4.20
2018-08-13T12:29:32.836Z,4.10
2018-08-13T12:32:10.930Z,4.60
2018-08-13T12:34:48.861Z,3.90
2018-08-13T12:37:25.222Z,4.23
2018-08-13T12:40:00.465Z,4.50
2018-08-13T12:42:38.069Z,4.53
2018-08-13T12:45:15.247Z,4.47
2018-08-13T12:47:52.632Z,4.30
2018-08-13T12:50:28.652Z,4.27
2018-08-13T12:53:04.132Z,4.10
2018-08-13T12:55:40.501Z,3.80
2018-08-13T12:58:16.344Z,3.90
2018-08-13T13:00:59.157Z,3.90
2018-08-13T13:03:35.027Z,3.93
2018-08-13T13:06:11.069Z,4.10
2018-08-13T13:08:51.065Z,4.63
2018-08-13T13:11:26.574Z,4.00
2018-08-13T13:14:01.926Z,3.60
2018-08-13T13:16:37.982Z,3.80
2018-08-13T13:19:13.809Z,3.43
2018-08-13T13:21:50.567Z,3.70
2018-08-13T13:24:26.039Z,3.80
2018-08-13T13:27:02.083Z,3.60
2018-08-13T13:29:37.938Z,3.63
2018-08-13T13:32:14.094Z,3.50
2018-08-13T13:34:49.856Z,3.87
2018-08-13T13:37:26.339Z,3.80
2018-08-13T13:40:02.062Z,2.90
2018-08-13T13:42:39.168Z,2.50
2018-08-13T13:45:15.412Z,2.37
2018-08-13T13:47:52.398Z,2.67
2018-08-13T13:50:28.036Z,2.37
2018-08-13T13:53:04.805Z,2.70
2018-08-13T13:55:42.919Z,2.70
2018-08-13T13:58:20.732Z,2.60
2018-08-13T14:00:59.128Z,2.50
2018-08-13T14:03:38.967Z,2.83
2018-08-13T14:06:15.462Z,2.60
2018-08-13T14:08:53.130Z,2.43
2018-08-13T14:11:29.598Z,2.43
2018-08-13T14:14:09.329Z,2.27
2018-08-13T14:19:27.620Z,2.70
2018-08-13T14:24:27.530Z,2.30
2018-08-13T14:27:03.920Z,2.70
2018-08-13T14:29:40.674Z,2.93
2018-08-13T14:32:17.451Z,2.70
2018-08-13T14:34:55.352Z,2.67
2018-08-13T14:37:30.386Z,2.60
2018-08-13T14:40:08.285Z,2.43
2018-08-13T14:42:44.747Z,2.73
2018-08-13T14:45:21.106Z,2.50
2018-08-13T14:47:58.305Z,2.40
2018-08-13T14:50:34.622Z,2.70
2018-08-13T14:53:10.631Z,2.77
2018-08-13T14:55:46.439Z,2.47
2018-08-13T14:58:24.263Z,2.40
2018-08-13T15:01:00.852Z,2.70
2018-08-13T15:03:38.893Z,2.50
2018-08-13T15:06:14.472Z,2.40
2018-08-13T15:08:52.289Z,2.50
2018-08-13T15:11:34.353Z,2.70
2018-08-13T15:14:13.709Z,2.63
2018-08-13T15:16:50.289Z,2.90
2018-08-13T15:19:25.810Z,2.37
2018-08-13T15:22:01.274Z,2.50
2018-08-13T15:24:39.368Z,2.60
2018-08-13T15:27:15.406Z,2.60
2018-08-13T15:29:52.310Z,2.70
2018-08-13T15:32:28.251Z,2.57
2018-08-13T15:35:05.869Z,2.70
2018-08-13T15:37:42.076Z,2.57
2018-08-13T15:40:18.360Z,2.50
2018-08-13T15:42:54.325Z,2.10
2018-08-13T15:45:29.769Z,2.10
2018-08-13T15:48:06.563Z,2.40
2018-08-13T15:50:42.601Z,2.40
2018-08-13T15:53:17.918Z,2.30
2018-08-13T15:55:53.094Z,2.17
2018-08-13T15:58:28.825Z,2.40
2018-08-13T16:01:06.414Z,2.00
2018-08-13T16:03:42.186Z,2.33
2018-08-13T16:06:18.216Z,2.40
2018-08-13T16:08:54.388Z,2.13
2018-08-13T16:11:29.948Z,1.97
2018-08-13T16:14:05.784Z,1.90
2018-08-13T16:16:41.622Z,2.00
2018-08-13T16:19:17.257Z,2.00
2018-08-13T16:21:53.237Z,2.10
2018-08-13T16:24:28.582Z,2.30
2018-08-13T16:27:06.186Z,2.00
2018-08-13T16:29:42.859Z,2.13
2018-08-13T16:32:19.811Z,2.20
2018-08-13T16:34:55.776Z,2.13
2018-08-13T16:37:31.326Z,2.50
2018-08-13T16:40:08.002Z,2.67
2018-08-13T16:42:43.350Z,2.87
2018-08-13T16:45:21.227Z,2.97
2018-08-13T16:47:56.804Z,2.10
2018-08-13T16:50:35.067Z,2.00
2018-08-13T16:53:10.843Z,2.50
2018-08-13T16:55:46.649Z,1.83
2018-08-13T16:58:23.799Z,2.00
2018-08-13T17:01:00.125Z,2.20
2018-08-13T17:03:37.723Z,2.30
2018-08-13T17:06:15.447Z,2.33
2018-08-13T17:08:53.222Z,2.67
2018-08-13T17:11:32.481Z,2.40
2018-08-13T17:14:10.720Z,2.30
2018-08-13T17:16:47.064Z,2.50
2018-08-13T17:19:22.596Z,2.63
2018-08-13T17:21:57.892Z,2.23
2018-08-13T17:24:33.865Z,2.30
2018-08-13T17:27:10.145Z,2.63
2018-08-13T17:29:45.174Z,2.70
2018-08-13T17:32:22.247Z,2.10
2018-08-13T17:34:57.907Z,2.00
2018-08-13T17:37:33.869Z,2.30
2018-08-13T17:40:11.205Z,2.80
2018-08-13T17:42:46.301Z,2.70
2018-08-13T17:45:25.919Z,2.80
2018-08-13T17:48:04.958Z,2.60
2018-08-13T17:50:40.999Z,2.63
2018-08-13T17:53:15.662Z,3.03
2018-08-13T17:55:54.340Z,2.67
2018-08-13T17:58:30.293Z,2.60
2018-08-13T18:01:08.818Z,2.87
2018-08-13T18:03:44.174Z,2.67
2018-08-13T18:06:21.646Z,3.20
2018-08-13T18:08:57.298Z,3.13
2018-08-13T18:11:31.814Z,2.70
2018-08-13T18:14:13.103Z,2.80
2018-08-13T18:16:48.195Z,3.30
2018-08-13T18:19:24.404Z,3.10
2018-08-13T18:22:00.286Z,3.17
2018-08-13T18:24:37.338Z,3.27
2018-08-13T18:27:13.757Z,3.10
2018-08-13T18:29:50.258Z,3.00
2018-08-13T18:32:26.423Z,3.07
2018-08-13T18:35:02.471Z,2.60
2018-08-13T18:37:40.785Z,3.30
2018-08-13T18:40:20.109Z,2.80
2018-08-13T18:42:55.762Z,3.07
2018-08-13T18:45:30.847Z,2.90
2018-08-13T18:48:12.301Z,2.77
2018-08-13T18:50:47.321Z,3.07
2018-08-13T18:53:24.188Z,2.87
2018-08-13T18:55:59.677Z,2.67
2018-08-13T18:58:37.746Z,2.83
2018-08-13T19:01:13.087Z,2.80
2018-08-13T19:03:49.052Z,2.47
2018-08-13T19:06:25.832Z,2.73
2018-08-13T19:09:01.756Z,2.70
2018-08-13T19:11:37.086Z,2.40
2018-08-13T19:14:11.422Z,2.80
2018-08-13T19:16:45.976Z,2.93
2018-08-13T19:19:23.055Z,2.43
2018-08-13T19:21:58.159Z,2.87
2018-08-13T19:24:33.897Z,2.50
2018-08-13T19:27:09.769Z,3.03
2018-08-13T19:29:44.457Z,2.63
2018-08-13T19:32:18.936Z,2.50
2018-08-13T19:34:53.852Z,2.60
2018-08-13T19:37:30.103Z,2.90
2018-08-13T19:40:10.146Z,3.10
2018-08-13T19:42:49.601Z,2.80
2018-08-13T19:45:31.009Z,2.30
2018-08-13T19:48:07.111Z,3.10
2018-08-13T19:50:43.497Z,2.80
2018-08-13T19:53:20.220Z,2.50
2018-08-13T19:55:58.191Z,2.67
2018-08-13T19:58:35.252Z,2.50
2018-08-13T20:01:11.843Z,2.40
2018-08-13T20:03:47.866Z,2.70
2018-08-13T20:06:24.555Z,2.90
2018-08-13T20:09:00.283Z,2.77
2018-08-13T20:11:34.956Z,2.73
2018-08-13T20:14:09.972Z,2.87
2018-08-13T20:16:45.314Z,2.77
2018-08-13T20:19:22.476Z,2.50
2018-08-13T20:21:59.024Z,3.03
2018-08-13T20:24:36.034Z,3.00
2018-08-13T20:27:12.493Z,2.90
2018-08-13T20:29:47.785Z,2.90
2018-08-13T20:32:23.443Z,2.87
2018-08-13T20:34:58.637Z,2.70
2018-08-13T20:37:35.285Z,2.90
2018-08-13T20:40:14.105Z,2.83
2018-08-13T20:42:50.469Z,2.70
2018-08-13T20:45:26.941Z,2.83
2018-08-13T20:48:02.486Z,2.93
2018-08-13T20:50:38.457Z,3.00
2018-08-13T20:53:14.684Z,2.73
2018-08-13T20:55:51.694Z,2.83
2018-08-13T20:58:28.157Z,2.50
2018-08-13T21:01:05.342Z,2.80
2018-08-13T21:03:41.114Z,2.60
2018-08-13T21:06:16.936Z,2.73
2018-08-13T21:08:53.817Z,3.27
2018-08-13T21:11:29.254Z,2.90
2018-08-13T21:14:05.906Z,3.00
2018-08-13T21:16:43.118Z,2.90
2018-08-13T21:19:19.941Z,3.40
2018-08-13T21:21:56.047Z,2.90
2018-08-13T21:24:32.113Z,3.00
2018-08-13T21:27:09.422Z,2.73
2018-08-13T21:29:51.991Z,2.90
2018-08-13T21:32:29.005Z,2.80
2018-08-13T21:35:04.817Z,2.63
2018-08-13T21:37:41.915Z,2.90
2018-08-13T21:40:21.465Z,3.00
2018-08-13T21:42:58.229Z,2.70
2018-08-13T21:45:34.405Z,3.20
2018-08-13T21:48:10.040Z,3.17
2018-08-13T21:50:47.028Z,2.90
2018-08-13T21:53:26.263Z,3.10
2018-08-13T21:56:02.517Z,2.87
2018-08-13T21:58:40.531Z,3.20
2018-08-13T22:01:22.915Z,3.40
2018-08-13T22:03:59.398Z,2.93
2018-08-13T22:06:36.747Z,3.20
2018-08-13T22:09:12.936Z,3.43
2018-08-13T22:11:50.218Z,3.50
2018-08-13T22:14:25.052Z,3.20
2018-08-13T22:17:00.280Z,3.43
2018-08-13T22:19:37.579Z,3.37
2018-08-13T22:22:12.993Z,3.73
2018-08-13T22:25:01.869Z,3.83
2018-08-13T22:27:37.717Z,3.20
2018-08-13T22:30:13.263Z,3.67
2018-08-13T22:32:50.859Z,3.73
2018-08-13T22:35:27.017Z,3.50
2018-08-13T22:38:02.977Z,3.63
2018-08-13T22:40:41.089Z,3.70
2018-08-13T22:43:16.641Z,3.10
2018-08-13T22:45:54.123Z,3.57
2018-08-13T22:48:31.213Z,3.37
2018-08-13T22:51:09.198Z,3.63
2018-08-13T22:53:44.560Z,3.90
2018-08-13T22:56:21.931Z,3.57
2018-08-13T22:58:57.989Z,3.90
2018-08-13T23:01:34.046Z,3.97
2018-08-13T23:04:10.099Z,3.83
2018-08-13T23:06:46.692Z,3.97
2018-08-13T23:09:24.270Z,3.77
2018-08-13T23:12:00.418Z,3.77
2018-08-13T23:14:37.866Z,3.97
2018-08-13T23:17:13.274Z,3.97
2018-08-13T23:19:50.754Z,4.10
2018-08-13T23:22:38.481Z,3.50
2018-08-13T23:25:15.149Z,3.60
2018-08-13T23:27:52.441Z,3.43
2018-08-13T23:30:28.489Z,3.80
2018-08-13T23:33:04.038Z,3.67
2018-08-13T23:35:40.005Z,3.30
2018-08-13T23:38:15.549Z,3.73
2018-08-13T23:40:51.901Z,3.40
2018-08-13T23:43:27.442Z,3.67
2018-08-13T23:46:04.425Z,3.60
2018-08-13T23:48:40.580Z,3.37
2018-08-13T23:51:16.277Z,3.47
2018-08-13T23:53:52.392Z,3.57
2018-08-13T23:56:28.035Z,3.63
2018-08-13T23:59:05.119Z,3.83
